Frankfurt am Main, Germany

7:05 PM CET on February 25, 2017 (GMT +0100)
Dahlienstraße | | Change Station

Elev 357 ft 50.06 °N, 8.54 °E | Updated 2 minutes ago

Clear
Clear
44.6 °F
Feels Like 45 °F
N
0.6
Wind Variable Wind from NW
Gusts 2.5 mph

Today
High -- | Low -- °F
--% Chance of Precip.
Yesterday
High -- | Low -- °F
Precip. -- in
Pressure 30.14 in
Visibility 6.2 miles
Clouds Overcast 10000 ft
Windchill 45 °F
Dew Point 37 °F
Humidity 74%
Rainfall 0.00 in
Snow Depth Not available.
7:16 AM 6:01 PM
Waning Crescent, 1% visible
METAR ETOU 251758Z AUTO 25007KT 9999 OVC100 08/M01 A3011 RMK AO2 SLP206 T00751009 10099 20065 56003
Pressure 30.14 in
Visibility 6.2 miles
Clouds Overcast 10000 ft
Windchill 45 °F
Dew Point 37 °F
Humidity 74%
Rainfall 0.00 in
Snow Depth Not available.
7:16 AM 6:01 PM
Waning Crescent, 1% visible
METAR ETOU 251758Z AUTO 25007KT 9999 OVC100 08/M01 A3011 RMK AO2 SLP206 T00751009 10099 20065 56003

Get Your Daily Forecast Email!

Thanks for signing up!

Be on the lookout for a verification email in your inbox.

You'll start receiving the daily forecast at 8 AM.

×

10-Day Weather Forecast

×

Almanac

Astronomy

Feb. 25, 2017 Rise Set
Actual Time
Civil Twilight
Nautical Twilight
Astronomical Twilight
Moon
Length of Visible Light
Length of Day
Tomorrow will be .
, % of the Moon is Illuminated

Today's Extremes

Country Highs Country Lows

Community

WunderPhotos

Upload Photos

1,962,540 photos uploaded!

WunderBlog® & News

Nearby

Air Quality

  Air Quality AQ Index Pollutant
Not available.

Snow Depth

Station Depth Elevation

Earthquake Activity

City Distance Mag. Time & Date
Minimum magnitude displayed is 2.5.

Coastal Water Temperatures

Place Temperature

Stations

Nearby Weather Stations

Station Location Temp. Windchill Dew Point Humidity Wind Precip. Elev Updated Type